sensor_id;sensor_type;location;lat;lon;timestamp;temperature;humidity
20498;DHT22;10407;53.238;10.448;2022-10-31T00:01:23;12.20;99.90
20498;DHT22;10407;53.238;10.448;2022-10-31T00:03:52;12.10;99.90
20498;DHT22;10407;53.238;10.448;2022-10-31T00:06:20;12.10;99.90
20498;DHT22;10407;53.238;10.448;2022-10-31T00:08:53;12.20;99.90
20498;DHT22;10407;53.238;10.448;2022-10-31T00:11:21;12.20;99.90
20498;DHT22;10407;53.238;10.448;2022-10-31T00:13:49;12.10;99.90
20498;DHT22;10407;53.238;10.448;2022-10-31T00:16:18;12.10;99.90
20498;DHT22;10407;53.238;10.448;2022-10-31T00:18:49;12.10;99.90
20498;DHT22;10407;53.238;10.448;2022-10-31T00:21:18;12.00;99.90
20498;DHT22;10407;53.238;10.448;2022-10-31T00:23:45;11.90;99.90
20498;DHT22;10407;53.238;10.448;2022-10-31T00:26:13;12.00;99.90
20498;DHT22;10407;53.238;10.448;2022-10-31T00:28:41;12.00;99.90
20498;DHT22;10407;53.238;10.448;2022-10-31T00:31:10;11.90;99.90
20498;DHT22;10407;53.238;10.448;2022-10-31T00:33:39;12.00;99.90
20498;DHT22;10407;53.238;10.448;2022-10-31T00:36:11;12.00;99.90
20498;DHT22;10407;53.238;10.448;2022-10-31T00:38:37;12.00;99.90
20498;DHT22;10407;53.238;10.448;2022-10-31T00:41:04;11.90;99.90
20498;DHT22;10407;53.238;10.448;2022-10-31T00:43:32;11.90;99.90
20498;DHT22;10407;53.238;10.448;2022-10-31T00:45:59;11.80;99.90
20498;DHT22;10407;53.238;10.448;2022-10-31T00:48:27;11.80;99.90
20498;DHT22;10407;53.238;10.448;2022-10-31T00:50:55;11.70;99.90
20498;DHT22;10407;53.238;10.448;2022-10-31T00:53:22;11.70;99.90
20498;DHT22;10407;53.238;10.448;2022-10-31T00:55:50;11.60;99.90
20498;DHT22;10407;53.238;10.448;2022-10-31T00:58:18;11.60;99.90
20498;DHT22;10407;53.238;10.448;2022-10-31T01:00:50;11.70;99.90
20498;DHT22;10407;53.238;10.448;2022-10-31T01:03:19;11.70;99.90
20498;DHT22;10407;53.238;10.448;2022-10-31T01:05:55;11.70;99.90
20498;DHT22;10407;53.238;10.448;2022-10-31T01:08:23;11.70;99.90
20498;DHT22;10407;53.238;10.448;2022-10-31T01:11:05;11.70;99.90
20498;DHT22;10407;53.238;10.448;2022-10-31T01:13:34;11.70;99.90
20498;DHT22;10407;53.238;10.448;2022-10-31T01:16:03;11.70;99.90
20498;DHT22;10407;53.238;10.448;2022-10-31T01:18:31;11.60;99.90
20498;DHT22;10407;53.238;10.448;2022-10-31T01:21:07;11.70;99.90
20498;DHT22;10407;53.238;10.448;2022-10-31T01:23:36;11.60;99.90
20498;DHT22;10407;53.238;10.448;2022-10-31T01:26:21;11.70;99.90
20498;DHT22;10407;53.238;10.448;2022-10-31T01:28:52;11.60;99.90
20498;DHT22;10407;53.238;10.448;2022-10-31T01:31:22;11.60;99.90
20498;DHT22;10407;53.238;10.448;2022-10-31T01:33:50;11.50;99.90
20498;DHT22;10407;53.238;10.448;2022-10-31T01:36:21;11.50;99.90
20498;DHT22;10407;53.238;10.448;2022-10-31T01:38:50;11.50;99.90
20498;DHT22;10407;53.238;10.448;2022-10-31T01:41:25;11.50;99.90
20498;DHT22;10407;53.238;10.448;2022-10-31T01:43:54;11.50;99.90
20498;DHT22;10407;53.238;10.448;2022-10-31T01:49:00;11.50;99.90
20498;DHT22;10407;53.238;10.448;2022-10-31T01:51:31;11.50;99.90
20498;DHT22;10407;53.238;10.448;2022-10-31T01:54:01;11.50;99.90
20498;DHT22;10407;53.238;10.448;2022-10-31T01:56:30;11.70;99.90
20498;DHT22;10407;53.238;10.448;2022-10-31T01:59:00;11.70;99.90
20498;DHT22;10407;53.238;10.448;2022-10-31T02:01:29;11.70;99.90
20498;DHT22;10407;53.238;10.448;2022-10-31T02:03:57;11.60;99.90
20498;DHT22;10407;53.238;10.448;2022-10-31T02:06:32;11.70;99.90
20498;DHT22;10407;53.238;10.448;2022-10-31T02:08:59;11.50;99.90
20498;DHT22;10407;53.238;10.448;2022-10-31T02:11:28;11.50;99.90
20498;DHT22;10407;53.238;10.448;2022-10-31T02:13:58;11.50;99.90
20498;DHT22;10407;53.238;10.448;2022-10-31T02:16:26;11.50;99.90
20498;DHT22;10407;53.238;10.448;2022-10-31T02:18:54;11.40;99.90
20498;DHT22;10407;53.238;10.448;2022-10-31T02:21:36;11.50;99.90
20498;DHT22;10407;53.238;10.448;2022-10-31T02:30:04;11.60;99.90
20498;DHT22;10407;53.238;10.448;2022-10-31T02:46:38;11.80;99.90
20498;DHT22;10407;53.238;10.448;2022-10-31T02:49:08;11.80;99.90
20498;DHT22;10407;53.238;10.448;2022-10-31T02:51:35;11.80;99.90
20498;DHT22;10407;53.238;10.448;2022-10-31T02:54:02;11.80;99.90
20498;DHT22;10407;53.238;10.448;2022-10-31T02:56:30;11.80;99.90
20498;DHT22;10407;53.238;10.448;2022-10-31T02:59:02;11.90;99.90
20498;DHT22;10407;53.238;10.448;2022-10-31T03:04:16;11.90;99.90
20498;DHT22;10407;53.238;10.448;2022-10-31T03:06:45;11.90;99.90
20498;DHT22;10407;53.238;10.448;2022-10-31T03:12:04;12.00;99.90
20498;DHT22;10407;53.238;10.448;2022-10-31T03:14:48;11.90;99.90
20498;DHT22;10407;53.238;10.448;2022-10-31T03:17:24;11.90;99.90
20498;DHT22;10407;53.238;10.448;2022-10-31T03:19:53;12.00;99.90
20498;DHT22;10407;53.238;10.448;2022-10-31T03:22:25;12.10;99.90
20498;DHT22;10407;53.238;10.448;2022-10-31T03:24:54;11.90;99.90
20498;DHT22;10407;53.238;10.448;2022-10-31T03:27:25;11.90;99.90
20498;DHT22;10407;53.238;10.448;2022-10-31T03:29:56;11.80;99.90
20498;DHT22;10407;53.238;10.448;2022-10-31T03:32:30;11.90;99.90
20498;DHT22;10407;53.238;10.448;2022-10-31T03:34:59;11.90;99.90
20498;DHT22;10407;53.238;10.448;2022-10-31T03:37:29;11.90;99.90
20498;DHT22;10407;53.238;10.448;2022-10-31T03:39:58;11.80;99.90
20498;DHT22;10407;53.238;10.448;2022-10-31T03:42:29;11.90;99.90
20498;DHT22;10407;53.238;10.448;2022-10-31T03:45:05;11.70;99.90
20498;DHT22;10407;53.238;10.448;2022-10-31T03:47:28;11.80;99.90
20498;DHT22;10407;53.238;10.448;2022-10-31T03:49:56;11.80;99.90
20498;DHT22;10407;53.238;10.448;2022-10-31T03:55:17;11.80;99.90
20498;DHT22;10407;53.238;10.448;2022-10-31T04:00:26;11.70;99.90
20498;DHT22;10407;53.238;10.448;2022-10-31T04:03:09;11.70;99.90
20498;DHT22;10407;53.238;10.448;2022-10-31T04:05:37;11.70;99.90
20498;DHT22;10407;53.238;10.448;2022-10-31T04:08:08;11.60;99.90
20498;DHT22;10407;53.238;10.448;2022-10-31T04:10:38;11.70;99.90
20498;DHT22;10407;53.238;10.448;2022-10-31T04:13:11;11.80;99.90
20498;DHT22;10407;53.238;10.448;2022-10-31T04:15:41;11.80;99.90
20498;DHT22;10407;53.238;10.448;2022-10-31T04:18:09;11.90;99.90
20498;DHT22;10407;53.238;10.448;2022-10-31T04:20:39;11.90;99.90
20498;DHT22;10407;53.238;10.448;2022-10-31T04:23:27;11.70;99.90
20498;DHT22;10407;53.238;10.448;2022-10-31T04:25:54;11.80;99.90
20498;DHT22;10407;53.238;10.448;2022-10-31T04:28:22;11.90;99.90
20498;DHT22;10407;53.238;10.448;2022-10-31T04:30:49;12.00;99.90
20498;DHT22;10407;53.238;10.448;2022-10-31T04:33:17;12.00;99.90
20498;DHT22;10407;53.238;10.448;2022-10-31T04:35:45;12.00;99.90
20498;DHT22;10407;53.238;10.448;2022-10-31T04:38:13;12.00;99.90
20498;DHT22;10407;53.238;10.448;2022-10-31T04:40:40;12.00;99.90
20498;DHT22;10407;53.238;10.448;2022-10-31T04:43:09;11.90;99.90
20498;DHT22;10407;53.238;10.448;2022-10-31T04:45:37;12.00;99.90
20498;DHT22;10407;53.238;10.448;2022-10-31T04:48:05;11.90;99.90
20498;DHT22;10407;53.238;10.448;2022-10-31T04:50:32;12.00;99.90
20498;DHT22;10407;53.238;10.448;2022-10-31T04:53:00;11.90;99.90
20498;DHT22;10407;53.238;10.448;2022-10-31T04:55:27;11.90;99.90
20498;DHT22;10407;53.238;10.448;2022-10-31T04:57:56;11.90;99.90
20498;DHT22;10407;53.238;10.448;2022-10-31T05:00:23;11.80;99.90
20498;DHT22;10407;53.238;10.448;2022-10-31T05:02:56;11.80;99.90
20498;DHT22;10407;53.238;10.448;2022-10-31T05:05:27;11.90;99.90
20498;DHT22;10407;53.238;10.448;2022-10-31T05:07:54;11.90;99.90
20498;DHT22;10407;53.238;10.448;2022-10-31T05:10:25;11.90;99.90
20498;DHT22;10407;53.238;10.448;2022-10-31T05:12:55;12.00;99.90
20498;DHT22;10407;53.238;10.448;2022-10-31T05:15:24;11.90;99.90
20498;DHT22;10407;53.238;10.448;2022-10-31T05:17:53;12.00;99.90
20498;DHT22;10407;53.238;10.448;2022-10-31T05:20:23;12.00;99.90
20498;DHT22;10407;53.238;10.448;2022-10-31T05:22:54;11.90;99.90
20498;DHT22;10407;53.238;10.448;2022-10-31T05:25:24;12.00;99.90
20498;DHT22;10407;53.238;10.448;2022-10-31T05:27:53;12.10;99.90
20498;DHT22;10407;53.238;10.448;2022-10-31T05:30:30;12.40;99.90
20498;DHT22;10407;53.238;10.448;2022-10-31T05:32:57;12.60;99.90
20498;DHT22;10407;53.238;10.448;2022-10-31T05:35:27;12.80;99.90
20498;DHT22;10407;53.238;10.448;2022-10-31T05:37:56;13.00;99.90
20498;DHT22;10407;53.238;10.448;2022-10-31T05:40:25;13.00;99.90
20498;DHT22;10407;53.238;10.448;2022-10-31T05:42:55;13.10;99.90
20498;DHT22;10407;53.238;10.448;2022-10-31T05:45:24;13.10;99.90
20498;DHT22;10407;53.238;10.448;2022-10-31T05:47:58;13.10;99.90
20498;DHT22;10407;53.238;10.448;2022-10-31T05:50:23;13.20;99.90
20498;DHT22;10407;53.238;10.448;2022-10-31T05:52:59;13.20;99.90
20498;DHT22;10407;53.238;10.448;2022-10-31T05:55:28;13.20;99.90
20498;DHT22;10407;53.238;10.448;2022-10-31T05:57:55;13.20;99.90
20498;DHT22;10407;53.238;10.448;2022-10-31T06:00:24;13.30;99.90
20498;DHT22;10407;53.238;10.448;2022-10-31T06:03:06;13.30;99.90
20498;DHT22;10407;53.238;10.448;2022-10-31T06:05:34;13.30;99.90
20498;DHT22;10407;53.238;10.448;2022-10-31T06:08:02;13.30;99.90
20498;DHT22;10407;53.238;10.448;2022-10-31T06:10:29;13.30;99.90
20498;DHT22;10407;53.238;10.448;2022-10-31T06:12:57;13.30;99.90
20498;DHT22;10407;53.238;10.448;2022-10-31T06:15:24;13.30;99.90
20498;DHT22;10407;53.238;10.448;2022-10-31T06:18:05;13.30;99.90
20498;DHT22;10407;53.238;10.448;2022-10-31T06:20:33;13.40;99.90
20498;DHT22;10407;53.238;10.448;2022-10-31T06:23:01;13.40;99.90
20498;DHT22;10407;53.238;10.448;2022-10-31T06:25:29;13.40;99.90
20498;DHT22;10407;53.238;10.448;2022-10-31T06:27:57;13.40;99.90
20498;DHT22;10407;53.238;10.448;2022-10-31T06:30:25;13.50;99.90
20498;DHT22;10407;53.238;10.448;2022-10-31T06:32:54;13.50;99.90
20498;DHT22;10407;53.238;10.448;2022-10-31T06:35:22;13.50;99.90
20498;DHT22;10407;53.238;10.448;2022-10-31T06:37:54;13.60;99.90
20498;DHT22;10407;53.238;10.448;2022-10-31T06:40:22;13.50;99.90
20498;DHT22;10407;53.238;10.448;2022-10-31T06:42:59;13.50;99.90
20498;DHT22;10407;53.238;10.448;2022-10-31T06:45:28;13.50;99.90
20498;DHT22;10407;53.238;10.448;2022-10-31T06:47:56;13.60;99.90
20498;DHT22;10407;53.238;10.448;2022-10-31T06:50:24;13.60;99.90
20498;DHT22;10407;53.238;10.448;2022-10-31T06:52:58;13.60;99.90
20498;DHT22;10407;53.238;10.448;2022-10-31T06:55:26;13.60;99.90
20498;DHT22;10407;53.238;10.448;2022-10-31T06:57:55;13.70;99.90
20498;DHT22;10407;53.238;10.448;2022-10-31T07:00:24;13.70;99.90
20498;DHT22;10407;53.238;10.448;2022-10-31T07:03:00;13.70;99.90
20498;DHT22;10407;53.238;10.448;2022-10-31T07:05:28;13.70;99.90
20498;DHT22;10407;53.238;10.448;2022-10-31T07:07:58;13.80;99.90
20498;DHT22;10407;53.238;10.448;2022-10-31T07:10:28;13.80;99.90
20498;DHT22;10407;53.238;10.448;2022-10-31T07:13:00;13.80;99.90
20498;DHT22;10407;53.238;10.448;2022-10-31T07:15:32;13.80;99.90
20498;DHT22;10407;53.238;10.448;2022-10-31T07:18:04;13.80;99.90
20498;DHT22;10407;53.238;10.448;2022-10-31T07:20:32;13.80;99.90
20498;DHT22;10407;53.238;10.448;2022-10-31T07:23:00;13.90;99.90
20498;DHT22;10407;53.238;10.448;2022-10-31T07:25:28;13.90;99.90
20498;DHT22;10407;53.238;10.448;2022-10-31T07:27:55;14.00;99.90
20498;DHT22;10407;53.238;10.448;2022-10-31T07:30:23;14.00;99.90
20498;DHT22;10407;53.238;10.448;2022-10-31T07:32:51;14.10;99.90
20498;DHT22;10407;53.238;10.448;2022-10-31T07:35:21;14.00;99.90
20498;DHT22;10407;53.238;10.448;2022-10-31T07:37:49;14.10;99.90
20498;DHT22;10407;53.238;10.448;2022-10-31T07:40:17;14.00;99.90
20498;DHT22;10407;53.238;10.448;2022-10-31T07:42:47;14.00;99.90
20498;DHT22;10407;53.238;10.448;2022-10-31T07:45:18;14.10;99.90
20498;DHT22;10407;53.238;10.448;2022-10-31T07:47:49;14.20;99.90
20498;DHT22;10407;53.238;10.448;2022-10-31T07:50:19;14.20;99.90
20498;DHT22;10407;53.238;10.448;2022-10-31T07:52:47;14.20;99.90
20498;DHT22;10407;53.238;10.448;2022-10-31T07:55:15;14.20;99.90
20498;DHT22;10407;53.238;10.448;2022-10-31T07:57:44;14.20;99.90
20498;DHT22;10407;53.238;10.448;2022-10-31T08:00:12;14.20;99.90
20498;DHT22;10407;53.238;10.448;2022-10-31T08:02:40;14.20;99.90
20498;DHT22;10407;53.238;10.448;2022-10-31T08:05:07;14.20;99.90
20498;DHT22;10407;53.238;10.448;2022-10-31T08:07:36;14.10;99.90
20498;DHT22;10407;53.238;10.448;2022-10-31T08:10:04;14.20;99.90
20498;DHT22;10407;53.238;10.448;2022-10-31T08:12:32;14.20;99.90
20498;DHT22;10407;53.238;10.448;2022-10-31T08:14:59;14.30;99.90
20498;DHT22;10407;53.238;10.448;2022-10-31T08:17:28;14.30;99.90
20498;DHT22;10407;53.238;10.448;2022-10-31T08:19:56;14.40;99.90
20498;DHT22;10407;53.238;10.448;2022-10-31T08:22:23;14.40;99.90
20498;DHT22;10407;53.238;10.448;2022-10-31T08:24:51;14.40;99.90
20498;DHT22;10407;53.238;10.448;2022-10-31T08:27:18;14.40;99.90
20498;DHT22;10407;53.238;10.448;2022-10-31T08:29:46;14.40;99.90
20498;DHT22;10407;53.238;10.448;2022-10-31T08:32:13;14.40;99.90
20498;DHT22;10407;53.238;10.448;2022-10-31T08:34:41;14.40;99.90
20498;DHT22;10407;53.238;10.448;2022-10-31T08:37:08;14.50;99.90
20498;DHT22;10407;53.238;10.448;2022-10-31T08:39:36;14.40;99.90
20498;DHT22;10407;53.238;10.448;2022-10-31T08:42:04;14.50;99.90
20498;DHT22;10407;53.238;10.448;2022-10-31T08:44:31;14.40;99.90
20498;DHT22;10407;53.238;10.448;2022-10-31T08:46:59;14.50;99.90
20498;DHT22;10407;53.238;10.448;2022-10-31T08:49:26;14.50;99.90
20498;DHT22;10407;53.238;10.448;2022-10-31T08:51:54;14.60;99.90
20498;DHT22;10407;53.238;10.448;2022-10-31T08:54:21;14.70;99.90
20498;DHT22;10407;53.238;10.448;2022-10-31T08:56:53;14.70;99.90
20498;DHT22;10407;53.238;10.448;2022-10-31T08:59:22;14.70;99.90
20498;DHT22;10407;53.238;10.448;2022-10-31T09:01:49;14.70;99.90
20498;DHT22;10407;53.238;10.448;2022-10-31T09:04:17;14.70;99.90
20498;DHT22;10407;53.238;10.448;2022-10-31T09:06:44;14.60;99.90
20498;DHT22;10407;53.238;10.448;2022-10-31T09:09:12;14.60;99.90
20498;DHT22;10407;53.238;10.448;2022-10-31T09:11:39;14.60;99.90
20498;DHT22;10407;53.238;10.448;2022-10-31T09:14:07;14.70;99.90
20498;DHT22;10407;53.238;10.448;2022-10-31T09:16:34;14.70;99.90
20498;DHT22;10407;53.238;10.448;2022-10-31T09:19:02;14.80;99.90
20498;DHT22;10407;53.238;10.448;2022-10-31T09:21:29;14.70;99.90
20498;DHT22;10407;53.238;10.448;2022-10-31T09:23:57;14.60;99.90
20498;DHT22;10407;53.238;10.448;2022-10-31T09:26:24;14.70;99.90
20498;DHT22;10407;53.238;10.448;2022-10-31T09:28:52;14.70;99.90
20498;DHT22;10407;53.238;10.448;2022-10-31T09:31:19;14.80;99.90
20498;DHT22;10407;53.238;10.448;2022-10-31T09:33:47;14.80;99.90
20498;DHT22;10407;53.238;10.448;2022-10-31T09:36:14;14.70;99.90
20498;DHT22;10407;53.238;10.448;2022-10-31T09:38:42;14.80;99.90
20498;DHT22;10407;53.238;10.448;2022-10-31T09:41:26;14.90;99.90
20498;DHT22;10407;53.238;10.448;2022-10-31T09:44:06;14.90;99.90
20498;DHT22;10407;53.238;10.448;2022-10-31T09:52:26;15.20;99.90
20498;DHT22;10407;53.238;10.448;2022-10-31T09:57:32;14.80;99.90
20498;DHT22;10407;53.238;10.448;2022-10-31T10:00:01;14.90;99.90
20498;DHT22;10407;53.238;10.448;2022-10-31T10:02:37;15.00;99.90
20498;DHT22;10407;53.238;10.448;2022-10-31T10:05:11;15.00;99.90
20498;DHT22;10407;53.238;10.448;2022-10-31T10:08:00;15.00;99.90
20498;DHT22;10407;53.238;10.448;2022-10-31T10:10:42;15.00;99.90
20498;DHT22;10407;53.238;10.448;2022-10-31T10:18:53;14.90;99.90
20498;DHT22;10407;53.238;10.448;2022-10-31T10:26:57;14.80;99.90
20498;DHT22;10407;53.238;10.448;2022-10-31T10:29:28;15.10;99.90
20498;DHT22;10407;53.238;10.448;2022-10-31T10:31:54;15.10;99.90
20498;DHT22;10407;53.238;10.448;2022-10-31T10:34:32;15.20;99.90
20498;DHT22;10407;53.238;10.448;2022-10-31T10:37:05;15.30;99.90
20498;DHT22;10407;53.238;10.448;2022-10-31T10:42:13;15.40;99.90
20498;DHT22;10407;53.238;10.448;2022-10-31T10:44:58;15.40;99.90
20498;DHT22;10407;53.238;10.448;2022-10-31T10:47:48;15.30;99.90
20498;DHT22;10407;53.238;10.448;2022-10-31T10:50:20;15.40;99.90
20498;DHT22;10407;53.238;10.448;2022-10-31T10:55:49;15.70;99.90
20498;DHT22;10407;53.238;10.448;2022-10-31T10:58:14;15.80;99.90
20498;DHT22;10407;53.238;10.448;2022-10-31T11:00:44;15.80;99.90
20498;DHT22;10407;53.238;10.448;2022-10-31T11:03:17;15.80;99.90
20498;DHT22;10407;53.238;10.448;2022-10-31T11:08:35;15.50;99.90
20498;DHT22;10407;53.238;10.448;2022-10-31T11:11:52;15.50;99.90
20498;DHT22;10407;53.238;10.448;2022-10-31T11:13:36;15.30;99.90
20498;DHT22;10407;53.238;10.448;2022-10-31T11:16:09;15.30;99.90
20498;DHT22;10407;53.238;10.448;2022-10-31T11:18:42;15.40;99.90
20498;DHT22;10407;53.238;10.448;2022-10-31T11:21:30;15.40;99.90
20498;DHT22;10407;53.238;10.448;2022-10-31T11:26:40;15.50;99.90
20498;DHT22;10407;53.238;10.448;2022-10-31T11:29:17;15.50;99.90
20498;DHT22;10407;53.238;10.448;2022-10-31T11:31:46;15.40;99.90
20498;DHT22;10407;53.238;10.448;2022-10-31T11:34:35;15.10;99.90
20498;DHT22;10407;53.238;10.448;2022-10-31T11:37:21;15.40;99.90
20498;DHT22;10407;53.238;10.448;2022-10-31T11:39:54;15.40;99.90
20498;DHT22;10407;53.238;10.448;2022-10-31T11:42:26;15.80;99.90
20498;DHT22;10407;53.238;10.448;2022-10-31T11:44:54;15.80;99.90
20498;DHT22;10407;53.238;10.448;2022-10-31T11:47:26;15.90;99.90
20498;DHT22;10407;53.238;10.448;2022-10-31T11:49:53;15.80;99.90
20498;DHT22;10407;53.238;10.448;2022-10-31T11:52:24;15.90;99.90
20498;DHT22;10407;53.238;10.448;2022-10-31T11:57:49;16.00;99.90
20498;DHT22;10407;53.238;10.448;2022-10-31T12:00:37;16.00;99.90
20498;DHT22;10407;53.238;10.448;2022-10-31T12:03:37;15.80;99.90
20498;DHT22;10407;53.238;10.448;2022-10-31T12:05:44;15.90;99.90
20498;DHT22;10407;53.238;10.448;2022-10-31T12:08:13;15.90;99.90
20498;DHT22;10407;53.238;10.448;2022-10-31T12:10:50;15.80;99.90
20498;DHT22;10407;53.238;10.448;2022-10-31T12:13:37;15.50;99.90
20498;DHT22;10407;53.238;10.448;2022-10-31T12:16:12;15.40;99.90
20498;DHT22;10407;53.238;10.448;2022-10-31T12:18:49;15.50;99.90
20498;DHT22;10407;53.238;10.448;2022-10-31T12:21:21;15.50;99.90
20498;DHT22;10407;53.238;10.448;2022-10-31T12:24:18;15.70;99.90
20498;DHT22;10407;53.238;10.448;2022-10-31T12:27:10;15.70;99.90
20498;DHT22;10407;53.238;10.448;2022-10-31T12:29:47;15.70;99.90
20498;DHT22;10407;53.238;10.448;2022-10-31T12:36:12;15.10;99.90
20498;DHT22;10407;53.238;10.448;2022-10-31T12:38:25;15.20;99.90
20498;DHT22;10407;53.238;10.448;2022-10-31T12:43:58;15.30;99.90
20498;DHT22;10407;53.238;10.448;2022-10-31T12:46:34;15.10;99.90
20498;DHT22;10407;53.238;10.448;2022-10-31T12:49:16;15.10;99.90
20498;DHT22;10407;53.238;10.448;2022-10-31T12:54:48;15.20;99.90
20498;DHT22;10407;53.238;10.448;2022-10-31T12:59:56;15.10;99.90
20498;DHT22;10407;53.238;10.448;2022-10-31T13:02:25;15.10;99.90
20498;DHT22;10407;53.238;10.448;2022-10-31T13:05:05;15.50;99.90
20498;DHT22;10407;53.238;10.448;2022-10-31T13:12:40;15.40;99.90
20498;DHT22;10407;53.238;10.448;2022-10-31T13:15:27;15.30;99.90
20498;DHT22;10407;53.238;10.448;2022-10-31T13:18:03;15.30;99.90
20498;DHT22;10407;53.238;10.448;2022-10-31T13:20:32;15.40;99.90
20498;DHT22;10407;53.238;10.448;2022-10-31T13:23:17;15.40;99.90
20498;DHT22;10407;53.238;10.448;2022-10-31T13:25:47;15.20;99.90
20498;DHT22;10407;53.238;10.448;2022-10-31T13:28:29;15.20;99.90
20498;DHT22;10407;53.238;10.448;2022-10-31T13:30:47;14.90;99.90
20498;DHT22;10407;53.238;10.448;2022-10-31T13:33:27;14.80;99.90
20498;DHT22;10407;53.238;10.448;2022-10-31T13:41:17;14.80;99.90
20498;DHT22;10407;53.238;10.448;2022-10-31T13:48:59;14.70;99.90
20498;DHT22;10407;53.238;10.448;2022-10-31T13:51:32;14.70;99.90
20498;DHT22;10407;53.238;10.448;2022-10-31T13:54:06;14.80;99.90
20498;DHT22;10407;53.238;10.448;2022-10-31T13:56:35;15.10;99.90
20498;DHT22;10407;53.238;10.448;2022-10-31T14:01:49;14.90;99.90
20498;DHT22;10407;53.238;10.448;2022-10-31T14:04:22;14.90;99.90
20498;DHT22;10407;53.238;10.448;2022-10-31T14:07:10;14.90;99.90
20498;DHT22;10407;53.238;10.448;2022-10-31T14:09:54;15.00;99.90
20498;DHT22;10407;53.238;10.448;2022-10-31T14:12:37;15.00;99.90
20498;DHT22;10407;53.238;10.448;2022-10-31T14:15:22;15.00;99.90
20498;DHT22;10407;53.238;10.448;2022-10-31T14:17:58;15.00;99.90
20498;DHT22;10407;53.238;10.448;2022-10-31T14:20:44;14.60;99.90
20498;DHT22;10407;53.238;10.448;2022-10-31T14:29:01;14.60;99.90
20498;DHT22;10407;53.238;10.448;2022-10-31T14:34:20;14.60;99.90
20498;DHT22;10407;53.238;10.448;2022-10-31T14:42:38;14.40;99.90
20498;DHT22;10407;53.238;10.448;2022-10-31T14:53:31;13.90;99.90
20498;DHT22;10407;53.238;10.448;2022-10-31T14:55:59;13.90;99.90
20498;DHT22;10407;53.238;10.448;2022-10-31T14:58:41;14.10;99.90
20498;DHT22;10407;53.238;10.448;2022-10-31T15:01:30;13.90;99.90
20498;DHT22;10407;53.238;10.448;2022-10-31T15:04:25;13.90;99.90
20498;DHT22;10407;53.238;10.448;2022-10-31T15:06:44;13.90;99.90
20498;DHT22;10407;53.238;10.448;2022-10-31T15:09:29;14.10;99.90
20498;DHT22;10407;53.238;10.448;2022-10-31T15:12:16;14.20;99.90
20498;DHT22;10407;53.238;10.448;2022-10-31T15:14:31;14.20;99.90
20498;DHT22;10407;53.238;10.448;2022-10-31T15:17:05;14.20;99.90
20498;DHT22;10407;53.238;10.448;2022-10-31T15:19:32;14.30;99.90
20498;DHT22;10407;53.238;10.448;2022-10-31T15:22:00;14.30;99.90
20498;DHT22;10407;53.238;10.448;2022-10-31T15:24:33;13.90;99.90
20498;DHT22;10407;53.238;10.448;2022-10-31T15:27:02;13.80;99.90
20498;DHT22;10407;53.238;10.448;2022-10-31T15:29:30;13.80;99.90
20498;DHT22;10407;53.238;10.448;2022-10-31T15:32:15;13.60;99.90
20498;DHT22;10407;53.238;10.448;2022-10-31T15:34:39;13.80;99.90
20498;DHT22;10407;53.238;10.448;2022-10-31T15:37:11;13.60;99.90
20498;DHT22;10407;53.238;10.448;2022-10-31T15:39:40;13.60;99.90
20498;DHT22;10407;53.238;10.448;2022-10-31T15:42:28;13.40;99.90
20498;DHT22;10407;53.238;10.448;2022-10-31T15:47:39;13.60;99.90
20498;DHT22;10407;53.238;10.448;2022-10-31T15:50:19;13.30;99.90
20498;DHT22;10407;53.238;10.448;2022-10-31T15:52:48;13.30;99.90
20498;DHT22;10407;53.238;10.448;2022-10-31T15:55:21;13.40;99.90
20498;DHT22;10407;53.238;10.448;2022-10-31T15:57:58;13.20;99.90
20498;DHT22;10407;53.238;10.448;2022-10-31T16:00:31;13.40;99.90
20498;DHT22;10407;53.238;10.448;2022-10-31T16:05:52;13.30;99.90
20498;DHT22;10407;53.238;10.448;2022-10-31T16:13:31;13.50;99.90
20498;DHT22;10407;53.238;10.448;2022-10-31T16:16:04;13.50;99.90
20498;DHT22;10407;53.238;10.448;2022-10-31T16:18:34;13.40;99.90
20498;DHT22;10407;53.238;10.448;2022-10-31T16:21:03;13.50;99.90
20498;DHT22;10407;53.238;10.448;2022-10-31T16:23:31;13.40;99.90
20498;DHT22;10407;53.238;10.448;2022-10-31T16:25:59;13.30;99.90
20498;DHT22;10407;53.238;10.448;2022-10-31T16:28:27;13.30;99.90
20498;DHT22;10407;53.238;10.448;2022-10-31T16:30:56;13.40;99.90
20498;DHT22;10407;53.238;10.448;2022-10-31T16:33:37;13.40;99.90
20498;DHT22;10407;53.238;10.448;2022-10-31T16:38:58;13.20;99.90
20498;DHT22;10407;53.238;10.448;2022-10-31T16:41:26;13.40;99.90
20498;DHT22;10407;53.238;10.448;2022-10-31T16:43:54;13.40;99.90
20498;DHT22;10407;53.238;10.448;2022-10-31T16:46:26;13.20;99.90
20498;DHT22;10407;53.238;10.448;2022-10-31T16:48:54;13.30;99.90
20498;DHT22;10407;53.238;10.448;2022-10-31T16:51:22;13.10;99.90
20498;DHT22;10407;53.238;10.448;2022-10-31T16:53:51;13.10;99.90
20498;DHT22;10407;53.238;10.448;2022-10-31T16:56:23;13.10;99.90
20498;DHT22;10407;53.238;10.448;2022-10-31T16:58:49;13.20;99.90
20498;DHT22;10407;53.238;10.448;2022-10-31T17:01:17;13.40;99.90
20498;DHT22;10407;53.238;10.448;2022-10-31T17:03:45;13.30;99.90
20498;DHT22;10407;53.238;10.448;2022-10-31T17:06:13;13.10;99.90
20498;DHT22;10407;53.238;10.448;2022-10-31T17:08:41;13.20;99.90
20498;DHT22;10407;53.238;10.448;2022-10-31T17:11:20;13.30;99.90
20498;DHT22;10407;53.238;10.448;2022-10-31T17:13:48;13.40;99.90
20498;DHT22;10407;53.238;10.448;2022-10-31T17:16:16;13.20;99.90
20498;DHT22;10407;53.238;10.448;2022-10-31T17:18:44;13.20;99.90
20498;DHT22;10407;53.238;10.448;2022-10-31T17:21:23;13.10;99.90
20498;DHT22;10407;53.238;10.448;2022-10-31T17:23:51;13.20;99.90
20498;DHT22;10407;53.238;10.448;2022-10-31T17:26:19;13.30;99.90
20498;DHT22;10407;53.238;10.448;2022-10-31T17:28:47;13.10;99.90
20498;DHT22;10407;53.238;10.448;2022-10-31T17:31:23;13.30;99.90
20498;DHT22;10407;53.238;10.448;2022-10-31T17:33:55;13.30;99.90
20498;DHT22;10407;53.238;10.448;2022-10-31T17:36:25;13.30;99.90
20498;DHT22;10407;53.238;10.448;2022-10-31T17:38:52;13.30;99.90
20498;DHT22;10407;53.238;10.448;2022-10-31T17:41:20;13.30;99.90
20498;DHT22;10407;53.238;10.448;2022-10-31T17:43:47;13.30;99.90
20498;DHT22;10407;53.238;10.448;2022-10-31T17:46:15;13.20;99.90
20498;DHT22;10407;53.238;10.448;2022-10-31T17:48:43;13.20;99.90
20498;DHT22;10407;53.238;10.448;2022-10-31T17:51:10;13.10;99.90
20498;DHT22;10407;53.238;10.448;2022-10-31T17:53:38;13.20;99.90